createdAt,value
2019-03-20T00:02:30.389Z,38.42
2019-03-20T00:07:31.689Z,34.88
2019-03-20T00:12:35.092Z,27.77
2019-03-20T00:17:36.601Z,26.82
2019-03-20T00:22:38.105Z,32.60
2019-03-20T00:27:40.162Z,33.10
2019-03-20T00:32:41.848Z,36.63
2019-03-20T00:37:44.045Z,40.95
2019-03-20T00:42:45.918Z,37.88
2019-03-20T00:47:47.547Z,38.40
2019-03-20T00:52:50.278Z,40.15
2019-03-20T00:57:51.673Z,35.85
2019-03-20T01:02:53.191Z,36.95
2019-03-20T01:07:54.571Z,36.40
2019-03-20T01:12:56.261Z,32.03
2019-03-20T01:17:57.711Z,37.63
2019-03-20T01:22:59.705Z,31.05
2019-03-20T01:28:01.204Z,35.00
2019-03-20T01:33:14.395Z,34.88
2019-03-20T01:38:15.826Z,29.95
2019-03-20T01:43:17.321Z,32.35
2019-03-20T01:48:18.778Z,36.00
2019-03-20T01:53:20.571Z,32.75
2019-03-20T01:58:23.232Z,28.62
2019-03-20T02:03:24.600Z,31.30
2019-03-20T02:08:25.974Z,28.05
2019-03-20T02:13:27.337Z,30.15
2019-03-20T02:18:30.707Z,31.48
2019-03-20T02:23:32.097Z,30.40
2019-03-20T02:28:33.541Z,30.25
2019-03-20T02:33:34.949Z,24.43
2019-03-20T02:38:36.412Z,35.05
2019-03-20T02:43:38.656Z,33.20
2019-03-20T02:48:40.653Z,29.75
2019-03-20T02:53:44.039Z,30.45
2019-03-20T02:58:45.380Z,26.80
2019-03-20T03:03:46.705Z,31.80
2019-03-20T03:08:48.070Z,26.60
2019-03-20T03:13:49.402Z,33.75
2019-03-20T03:18:51.009Z,29.67
2019-03-20T03:23:52.699Z,35.90
2019-03-20T03:28:54.280Z,32.88
2019-03-20T03:33:55.785Z,31.82
2019-03-20T03:38:58.289Z,35.40
2019-03-20T03:43:59.783Z,31.60
2019-03-20T03:49:01.130Z,34.23
2019-03-20T03:54:02.841Z,29.23
2019-03-20T03:59:04.654Z,37.00
2019-03-20T04:04:06.929Z,33.63
2019-03-20T04:09:08.233Z,34.53
2019-03-20T04:14:10.556Z,32.53
2019-03-20T04:19:12.053Z,32.98
2019-03-20T04:24:13.637Z,35.25
2019-03-20T04:29:15.221Z,37.75
2019-03-20T04:34:16.990Z,34.63
2019-03-20T04:39:18.307Z,41.83
2019-03-20T04:44:21.632Z,31.40
2019-03-20T04:49:23.817Z,34.18
2019-03-20T04:54:25.283Z,37.50
2019-03-20T04:59:26.623Z,33.98
2019-03-20T05:04:32.130Z,34.58
2019-03-20T05:09:31.428Z,34.55
2019-03-20T05:14:33.028Z,35.50
2019-03-20T05:19:34.364Z,39.15
2019-03-20T05:24:35.733Z,38.28
2019-03-20T05:29:37.172Z,41.83
2019-03-20T05:34:38.748Z,35.43
2019-03-20T05:39:40.146Z,42.25
2019-03-20T05:44:42.975Z,40.85
2019-03-20T05:49:44.472Z,38.90
2019-03-20T05:54:45.984Z,39.45
2019-03-20T05:59:47.686Z,38.95
2019-03-20T06:04:49.370Z,39.67
2019-03-20T06:09:50.750Z,41.35
2019-03-20T06:14:52.439Z,43.20
2019-03-20T06:19:53.925Z,43.05
2019-03-20T06:24:55.740Z,44.15
2019-03-20T06:29:57.139Z,36.05
2019-03-20T06:34:58.477Z,43.90
2019-03-20T06:39:59.876Z,41.55
2019-03-20T06:45:01.741Z,49.15
2019-03-20T06:50:22.111Z,42.80
2019-03-20T06:55:23.506Z,55.15
2019-03-20T07:00:51.429Z,47.55
2019-03-20T07:06:15.298Z,48.98
2019-03-20T07:11:16.325Z,48.17
2019-03-20T07:16:17.669Z,48.55
2019-03-20T07:21:19.242Z,50.98
2019-03-20T07:26:20.667Z,49.50
2019-03-20T07:31:22.044Z,54.77
2019-03-20T07:36:23.368Z,46.53
2019-03-20T07:41:24.772Z,50.78
2019-03-20T07:46:26.354Z,49.90
2019-03-20T07:51:28.140Z,45.80
2019-03-20T07:56:29.607Z,51.37
2019-03-20T08:01:33.018Z,53.25
2019-03-20T08:06:34.512Z,53.83
2019-03-20T08:11:37.521Z,56.23
2019-03-20T08:16:38.782Z,55.58
2019-03-20T08:21:40.314Z,63.58
2019-03-20T08:26:41.772Z,68.05
2019-03-20T08:31:43.358Z,76.55
2019-03-20T08:36:44.772Z,78.47
2019-03-20T08:41:46.152Z,81.02
2019-03-20T08:46:47.732Z,79.72
2019-03-20T08:51:49.046Z,83.58
2019-03-20T08:56:50.912Z,76.55
2019-03-20T09:01:54.468Z,83.95
2019-03-20T09:06:55.848Z,87.92
2019-03-20T09:11:57.150Z,79.35
2019-03-20T09:16:58.631Z,77.90
2019-03-20T09:22:00.022Z,76.65
2019-03-20T09:27:03.908Z,81.60
2019-03-20T09:32:05.303Z,78.20
2019-03-20T09:37:06.655Z,73.85
2019-03-20T09:42:08.011Z,68.52
2019-03-20T09:47:11.268Z,67.72
2019-03-20T09:52:12.657Z,75.22
2019-03-20T09:57:14.029Z,71.15
2019-03-20T10:02:15.421Z,85.07
2019-03-20T10:07:16.736Z,86.47
2019-03-20T10:12:18.217Z,79.95
2019-03-20T10:17:19.531Z,80.83
2019-03-20T10:22:22.459Z,81.28
2019-03-20T10:27:23.897Z,82.35
2019-03-20T10:32:25.186Z,84.90
2019-03-20T10:37:26.842Z,81.28
2019-03-20T10:42:28.307Z,83.10
2019-03-20T10:47:29.711Z,74.07
2019-03-20T10:52:31.121Z,79.05
2019-03-20T10:57:32.673Z,77.75
2019-03-20T11:02:35.912Z,76.87
2019-03-20T11:07:37.234Z,71.80
2019-03-20T11:12:38.647Z,74.20
2019-03-20T11:17:41.068Z,68.65
2019-03-20T11:22:42.602Z,72.15
2019-03-20T11:27:48.131Z,70.45
2019-03-20T11:32:51.574Z,73.40
2019-03-20T11:37:52.972Z,69.87
2019-03-20T11:42:55.525Z,68.57
2019-03-20T11:47:57.155Z,70.83
2019-03-20T11:52:58.818Z,69.42
2019-03-20T11:58:02.212Z,68.00
2019-03-20T12:03:04.508Z,73.12
2019-03-20T12:08:06.118Z,64.77
2019-03-20T12:13:09.092Z,75.10
2019-03-20T12:18:10.775Z,63.58
2019-03-20T12:23:12.319Z,59.80
2019-03-20T12:28:15.348Z,65.95
2019-03-20T12:33:23.028Z,62.98
2019-03-20T12:38:26.012Z,60.60
2019-03-20T12:43:27.710Z,69.62
2019-03-20T12:48:29.305Z,65.32
2019-03-20T12:53:33.746Z,78.02
2019-03-20T12:58:35.214Z,64.15
2019-03-20T13:03:39.808Z,65.35
2019-03-20T13:08:41.211Z,64.70
2019-03-20T13:13:43.224Z,60.33
2019-03-20T13:18:45.391Z,58.48
2019-03-20T13:23:46.869Z,57.23
2019-03-20T13:28:49.031Z,54.03
2019-03-20T13:33:52.406Z,51.58
2019-03-20T13:39:12.378Z,53.90
2019-03-20T13:44:13.849Z,52.08
2019-03-20T13:49:15.181Z,50.70
2019-03-20T13:54:17.293Z,55.58
2019-03-20T13:59:19.194Z,50.48
2019-03-20T14:04:21.472Z,51.68
2019-03-20T14:09:22.889Z,54.05
2019-03-20T14:14:25.493Z,50.43
2019-03-20T14:19:26.943Z,53.85
2019-03-20T14:24:30.148Z,52.65
2019-03-20T14:29:31.563Z,52.95
2019-03-20T14:34:54.556Z,49.60
2019-03-20T14:39:55.849Z,53.92
2019-03-20T14:44:58.971Z,51.70
2019-03-20T14:50:00.499Z,50.15
2019-03-20T14:55:03.998Z,51.28
2019-03-20T15:00:19.826Z,53.55
2019-03-20T15:05:22.744Z,53.13
2019-03-20T15:10:26.469Z,50.83
2019-03-20T15:15:48.492Z,50.95
2019-03-20T15:20:52.320Z,54.13
2019-03-20T15:25:53.902Z,48.20
2019-03-20T15:30:55.693Z,53.35
2019-03-20T15:35:57.147Z,47.50
2019-03-20T15:40:58.677Z,48.95
2019-03-20T15:46:00.118Z,46.48
2019-03-20T15:51:01.740Z,45.12
2019-03-20T15:56:04.909Z,43.60
2019-03-20T16:01:06.724Z,50.58
2019-03-20T16:06:09.722Z,41.02
2019-03-20T16:11:11.654Z,46.68
2019-03-20T16:16:12.976Z,43.50
2019-03-20T16:21:16.302Z,40.80
2019-03-20T16:26:17.723Z,43.85
2019-03-20T16:31:19.134Z,39.83
2019-03-20T16:36:20.885Z,42.75
2019-03-20T16:41:22.213Z,42.23
2019-03-20T16:46:23.652Z,41.98
2019-03-20T16:51:25.678Z,44.77
2019-03-20T16:56:27.300Z,41.65
2019-03-20T17:01:28.717Z,46.95
2019-03-20T17:06:30.021Z,49.10
2019-03-20T17:11:38.385Z,47.33
2019-03-20T17:16:34.834Z,44.13
2019-03-20T17:21:36.433Z,46.65
2019-03-20T17:26:38.049Z,50.48
2019-03-20T17:31:43.334Z,55.67
2019-03-20T17:36:43.559Z,57.73
2019-03-20T17:41:45.029Z,59.13
2019-03-20T17:46:48.994Z,54.95
2019-03-20T17:51:50.409Z,53.40
2019-03-20T17:56:52.565Z,47.90
2019-03-20T18:01:53.924Z,46.83
2019-03-20T18:06:55.400Z,44.58
2019-03-20T18:11:56.949Z,50.45
2019-03-20T18:16:58.397Z,46.30
2019-03-20T18:22:00.086Z,46.25
2019-03-20T18:27:01.585Z,41.53
2019-03-20T18:32:03.512Z,44.65
2019-03-20T18:37:05.448Z,49.23
2019-03-20T18:42:06.844Z,47.03
2019-03-20T18:47:08.332Z,50.80
2019-03-20T18:52:09.651Z,49.63
2019-03-20T18:57:11.145Z,46.68
2019-03-20T19:02:12.499Z,53.55
2019-03-20T19:07:13.895Z,55.38
2019-03-20T19:12:15.513Z,46.70
2019-03-20T19:17:17.158Z,53.42
2019-03-20T19:22:18.731Z,53.50
2019-03-20T19:27:20.131Z,51.77
2019-03-20T19:32:21.516Z,52.90
2019-03-20T19:37:23.365Z,47.90
2019-03-20T19:42:24.871Z,46.05
2019-03-20T19:47:26.333Z,48.10
2019-03-20T19:52:27.742Z,41.98
2019-03-20T19:57:29.228Z,44.98
2019-03-20T20:02:30.841Z,38.80
2019-03-20T20:07:32.401Z,34.70
2019-03-20T20:12:33.716Z,35.48
2019-03-20T20:17:36.333Z,36.75
2019-03-20T20:22:37.990Z,32.03
2019-03-20T20:27:39.474Z,38.95
2019-03-20T20:32:41.092Z,29.72
2019-03-20T20:37:48.730Z,34.88
2019-03-20T20:42:50.096Z,29.50
2019-03-20T20:47:51.768Z,31.73
2019-03-20T20:52:53.843Z,39.15
2019-03-20T20:57:55.857Z,33.70
2019-03-20T21:02:57.583Z,31.60
2019-03-20T21:07:59.324Z,32.73
2019-03-20T21:13:01.008Z,28.77
2019-03-20T21:18:20.338Z,30.80
2019-03-20T21:24:16.037Z,31.68
2019-03-20T21:29:49.075Z,45.05
2019-03-20T21:35:29.428Z,42.25
2019-03-20T21:40:51.047Z,33.98
2019-03-20T21:46:13.399Z,43.83
2019-03-20T21:51:15.425Z,37.70
2019-03-20T21:56:40.329Z,40.33
2019-03-20T22:02:27.238Z,39.10
2019-03-20T22:07:30.783Z,38.63
2019-03-20T22:12:40.594Z,40.10
2019-03-20T22:18:27.485Z,37.40
2019-03-20T22:23:43.465Z,36.03
2019-03-20T22:29:23.465Z,46.68
2019-03-20T22:34:52.722Z,47.48
2019-03-20T22:40:17.459Z,44.67
2019-03-20T22:45:58.109Z,43.78
2019-03-20T22:51:10.926Z,43.00
2019-03-20T22:56:39.336Z,44.93
2019-03-20T23:01:46.497Z,49.63
2019-03-20T23:06:47.903Z,44.50
2019-03-20T23:11:49.539Z,50.95
2019-03-20T23:16:51.506Z,52.98
2019-03-20T23:21:53.100Z,50.08
2019-03-20T23:26:56.767Z,53.28
2019-03-20T23:31:58.247Z,53.85
2019-03-20T23:36:59.777Z,55.95
2019-03-20T23:42:01.338Z,61.68
2019-03-20T23:47:03.079Z,59.85
2019-03-20T23:52:04.529Z,63.15
2019-03-20T23:57:07.542Z,63.90
